Time;durP1;ratioP1;P1;durP2;ratioP2;P2;SDS_P1;SDS_P2;PMS_P1;PMS_P2;Temp;Humidity;BMP_temperature;BMP_pressure;BME280_temperature;BME280_humidity;BME280_pressure;Samples;Min_cycle;Max_cycle;Signal;HPM_P1;HPM_P2
2022/04/13 00:00:19;;;;;;;3.53;1.00;;;2.10;99.90;;;;;;5052194;28;20474;-80
2022/04/13 00:02:48;;;;;;;3.97;1.10;;;2.10;99.90;;;;;;5070105;28;20417;-81
2022/04/13 00:05:16;;;;;;;4.85;1.23;;;2.10;99.90;;;;;;5070176;28;20394;-81
2022/04/13 00:07:44;;;;;;;3.77;1.30;;;2.00;99.90;;;;;;5057036;28;20394;-81
2022/04/13 00:10:12;;;;;;;5.15;1.10;;;2.00;99.90;;;;;;5074685;28;20402;-81
2022/04/13 00:12:40;;;;;;;3.60;1.10;;;2.00;99.90;;;;;;5074591;28;20389;-82
2022/04/13 00:15:09;;;;;;;5.25;1.10;;;2.00;99.90;;;;;;5074203;28;20421;-81
2022/04/13 00:17:37;;;;;;;4.90;1.20;;;2.00;99.90;;;;;;5074256;28;20384;-82
2022/04/13 00:20:06;;;;;;;2.80;1.20;;;2.00;99.90;;;;;;5074503;28;20393;-80
2022/04/13 00:22:34;;;;;;;3.10;0.90;;;2.00;99.90;;;;;;5072637;28;20398;-80
2022/04/13 00:25:02;;;;;;;3.97;1.05;;;2.10;99.90;;;;;;5054794;28;20396;-81
2022/04/13 00:27:29;;;;;;;4.25;1.00;;;2.10;99.90;;;;;;5037003;28;20398;-81
2022/04/13 00:29:57;;;;;;;5.43;1.30;;;2.10;99.90;;;;;;5054746;28;20941;-81
2022/04/13 00:32:25;;;;;;;3.17;1.10;;;2.10;99.90;;;;;;5054876;28;20434;-80
2022/04/13 00:34:54;;;;;;;3.75;1.20;;;2.10;99.90;;;;;;5054792;28;20426;-81
2022/04/13 00:37:21;;;;;;;5.10;1.20;;;2.00;99.90;;;;;;5054655;28;20426;-82
2022/04/13 00:39:49;;;;;;;3.78;1.33;;;2.10;99.90;;;;;;5054594;28;20387;-81
2022/04/13 00:42:17;;;;;;;3.87;1.20;;;2.00;99.90;;;;;;5056450;28;20386;-81
2022/04/13 00:44:45;;;;;;;4.88;1.13;;;2.00;99.90;;;;;;5056591;28;20434;-81
2022/04/13 00:47:13;;;;;;;4.90;1.15;;;1.90;99.90;;;;;;5074491;28;20386;-81
2022/04/13 00:49:40;;;;;;;4.47;1.20;;;1.90;99.90;;;;;;5073233;28;20405;-81
2022/04/13 00:52:10;;;;;;;4.28;1.20;;;1.90;99.90;;;;;;5056761;28;20481;-80
2022/04/13 00:54:43;;;;;;;3.67;1.23;;;1.90;99.90;;;;;;5074427;28;20386;-80
2022/04/13 00:57:11;;;;;;;4.95;1.27;;;2.00;99.90;;;;;;5053074;28;20383;-80
2022/04/13 00:59:40;;;;;;;4.60;1.45;;;1.90;99.90;;;;;;5036433;28;20395;-81
2022/04/13 01:02:09;;;;;;;4.53;1.17;;;1.90;99.90;;;;;;5054283;28;20410;-80
2022/04/13 01:04:37;;;;;;;2.95;1.13;;;1.90;99.90;;;;;;5054086;28;20880;-83
2022/04/13 01:07:09;;;;;;;4.28;1.40;;;1.80;99.90;;;;;;5049901;28;20449;-82
2022/04/13 01:09:37;;;;;;;3.58;1.20;;;1.80;99.90;;;;;;5055981;28;20760;-81
2022/04/13 01:12:06;;;;;;;4.95;1.30;;;1.80;99.90;;;;;;5055866;28;20414;-79
2022/04/13 01:14:34;;;;;;;3.15;1.13;;;1.80;99.90;;;;;;5073468;28;20386;-81
2022/04/13 01:17:02;;;;;;;4.43;1.20;;;1.70;99.90;;;;;;5073429;28;20386;-83
2022/04/13 01:19:32;;;;;;;3.77;1.37;;;1.70;99.90;;;;;;5056400;28;20390;-83
2022/04/13 01:22:12;;;;;;;4.53;1.20;;;1.60;99.90;;;;;;5055509;28;20390;-81
2022/04/13 01:24:40;;;;;;;4.15;1.27;;;1.60;99.90;;;;;;5072943;28;20481;-82
2022/04/13 01:27:07;;;;;;;4.80;1.30;;;1.60;99.90;;;;;;5055363;28;20668;-82
2022/04/13 01:29:35;;;;;;;3.90;1.30;;;1.60;99.90;;;;;;5073206;28;20760;-82
2022/04/13 01:32:03;;;;;;;3.03;1.10;;;1.60;99.90;;;;;;5062902;28;20870;-82
2022/04/13 01:34:31;;;;;;;4.13;1.20;;;1.60;99.90;;;;;;5052467;28;20396;-80
2022/04/13 01:36:58;;;;;;;3.67;1.30;;;1.50;99.90;;;;;;5048565;28;20392;-81
2022/04/13 01:39:27;;;;;;;5.00;1.30;;;1.50;99.90;;;;;;5069142;28;20394;-80
2022/04/13 01:41:55;;;;;;;4.80;1.58;;;1.50;99.90;;;;;;5053627;28;20422;-81
2022/04/13 01:44:23;;;;;;;4.13;1.15;;;1.50;99.90;;;;;;5053552;28;20391;-80
2022/04/13 01:46:51;;;;;;;4.47;1.33;;;1.40;99.90;;;;;;5053497;28;20474;-81
2022/04/13 01:49:18;;;;;;;3.15;1.25;;;1.40;99.90;;;;;;5035466;28;20443;-82
2022/04/13 01:51:46;;;;;;;5.15;1.40;;;1.30;99.90;;;;;;5053452;28;20870;-81
2022/04/13 01:54:13;;;;;;;4.90;1.70;;;1.30;99.90;;;;;;5053374;28;20434;-82
2022/04/13 01:56:41;;;;;;;3.53;1.27;;;1.30;99.90;;;;;;5053304;28;20380;-81
2022/04/13 01:59:09;;;;;;;4.22;1.27;;;1.30;99.90;;;;;;5053275;28;20858;-81
2022/04/13 02:01:45;;;;;;;2.83;1.00;;;1.20;99.90;;;;;;5055363;28;20941;-80
2022/04/13 02:04:21;;;;;;;4.22;1.58;;;1.20;99.90;;;;;;5052863;28;20396;-81
2022/04/13 02:06:50;;;;;;;5.32;1.40;;;1.20;99.90;;;;;;5046693;28;20503;-80
2022/04/13 02:09:18;;;;;;;3.03;1.30;;;1.10;99.90;;;;;;5071784;28;20417;-82
2022/04/13 02:11:47;;;;;;;3.10;1.35;;;1.00;99.90;;;;;;5054806;28;20386;-81
2022/04/13 02:14:15;;;;;;;8.20;1.83;;;1.10;99.90;;;;;;5038065;28;20397;-80
2022/04/13 02:16:43;;;;;;;2.53;1.10;;;1.00;99.90;;;;;;5072006;28;20390;-81
2022/04/13 02:19:12;;;;;;;7.15;1.67;;;1.00;99.90;;;;;;5037789;28;20414;-81
2022/04/13 02:21:40;;;;;;;3.93;1.27;;;1.00;99.90;;;;;;5071212;28;20744;-81
2022/04/13 02:24:08;;;;;;;4.30;1.38;;;1.00;99.90;;;;;;5072327;28;20386;-82
2022/04/13 02:26:36;;;;;;;4.10;1.38;;;1.00;99.90;;;;;;5072435;28;20394;-82
2022/04/13 02:29:04;;;;;;;4.97;1.50;;;1.00;99.90;;;;;;5071435;28;20378;-81
2022/04/13 02:31:32;;;;;;;4.43;1.20;;;0.90;99.90;;;;;;5072125;28;20409;-82
2022/04/13 02:34:04;;;;;;;3.58;1.27;;;0.90;99.90;;;;;;5072443;28;20919;-80
2022/04/13 02:36:32;;;;;;;4.63;1.60;;;0.90;99.90;;;;;;5072066;28;20950;-81
2022/04/13 02:39:00;;;;;;;5.55;1.60;;;0.90;99.90;;;;;;5071863;28;20414;-81
2022/04/13 02:41:27;;;;;;;4.80;2.00;;;0.80;99.90;;;;;;5072025;28;20445;-81
2022/04/13 02:43:55;;;;;;;3.22;1.25;;;0.80;99.90;;;;;;5071948;28;20390;-82
2022/04/13 02:46:23;;;;;;;4.53;1.50;;;0.80;99.90;;;;;;5054491;28;20472;-82
2022/04/13 02:48:51;;;;;;;4.65;1.50;;;0.80;99.90;;;;;;5070621;28;20382;-81
2022/04/13 02:51:18;;;;;;;5.13;1.35;;;0.70;99.90;;;;;;5053562;28;20418;-82
2022/04/13 02:53:46;;;;;;;3.25;1.48;;;0.70;99.90;;;;;;5072018;28;20468;-81
2022/04/13 02:56:13;;;;;;;5.50;1.60;;;0.70;99.90;;;;;;5054212;28;20796;-82
2022/04/13 02:58:41;;;;;;;4.80;1.50;;;0.70;99.90;;;;;;5070541;28;20382;-80
2022/04/13 03:01:09;;;;;;;4.68;1.40;;;0.70;99.90;;;;;;5065219;28;20406;-80
2022/04/13 03:03:36;;;;;;;3.88;1.30;;;0.70;99.90;;;;;;5054228;28;20439;-81
2022/04/13 03:06:04;;;;;;;5.15;1.70;;;0.60;99.90;;;;;;5071631;28;20749;-81
2022/04/13 03:08:32;;;;;;;3.97;1.20;;;0.60;99.90;;;;;;5063030;28;20897;-82
2022/04/13 03:11:00;;;;;;;3.15;1.63;;;0.60;99.90;;;;;;5051738;28;20486;-82
2022/04/13 03:13:28;;;;;;;2.20;1.30;;;0.60;99.90;;;;;;5052424;28;20387;-81
2022/04/13 03:15:55;;;;;;;4.20;1.67;;;0.60;99.90;;;;;;5050330;28;20427;-82
2022/04/13 03:18:23;;;;;;;4.00;1.50;;;0.50;99.90;;;;;;5033840;28;20479;-80
2022/04/13 03:20:51;;;;;;;4.15;1.38;;;0.50;99.90;;;;;;5051699;28;20483;-82
2022/04/13 03:23:18;;;;;;;4.53;1.42;;;0.40;99.90;;;;;;5051730;28;20396;-81
2022/04/13 03:25:48;;;;;;;4.43;1.67;;;0.40;99.90;;;;;;5050163;28;20487;-81
2022/04/13 03:28:16;;;;;;;6.22;1.67;;;0.40;99.90;;;;;;5050293;28;20449;-81
2022/04/13 03:30:43;;;;;;;2.90;1.50;;;0.40;99.90;;;;;;5051431;28;20402;-81
2022/04/13 03:33:11;;;;;;;4.33;1.67;;;0.30;99.90;;;;;;5033617;28;20446;-81
2022/04/13 03:35:39;;;;;;;4.50;1.48;;;0.30;99.90;;;;;;5050055;28;20486;-82
2022/04/13 03:38:07;;;;;;;4.35;1.60;;;0.30;99.90;;;;;;5039614;28;20492;-81
2022/04/13 03:40:34;;;;;;;5.80;1.50;;;0.30;99.90;;;;;;5045926;28;20390;-82
2022/04/13 03:43:02;;;;;;;4.25;1.70;;;0.30;99.90;;;;;;5070881;28;20394;-82
2022/04/13 03:45:30;;;;;;;5.50;1.60;;;0.30;99.90;;;;;;5053450;28;20420;-81
2022/04/13 03:47:58;;;;;;;4.23;1.30;;;0.30;99.90;;;;;;5071046;28;20386;-81
2022/04/13 03:50:26;;;;;;;4.13;1.42;;;0.30;99.90;;;;;;5070945;28;20488;-82
2022/04/13 03:52:54;;;;;;;4.35;1.50;;;0.30;99.90;;;;;;5071130;28;20385;-80
2022/04/13 03:55:22;;;;;;;4.45;1.58;;;0.30;99.90;;;;;;5070917;28;20389;-81
2022/04/13 03:57:51;;;;;;;3.95;1.58;;;0.30;99.90;;;;;;5053506;28;20388;-81
2022/04/13 04:00:19;;;;;;;4.28;1.33;;;0.30;99.90;;;;;;5052163;28;20445;-82
2022/04/13 04:02:46;;;;;;;5.18;1.58;;;0.20;99.90;;;;;;5067222;28;20399;-81
2022/04/13 04:05:14;;;;;;;6.45;1.58;;;0.20;99.90;;;;;;5062307;28;20453;-81
2022/04/13 04:07:42;;;;;;;3.47;1.60;;;0.30;99.90;;;;;;5049767;28;20800;-81
2022/04/13 04:10:10;;;;;;;5.07;1.65;;;0.20;99.90;;;;;;5033533;28;20403;-81
2022/04/13 04:12:42;;;;;;;4.00;1.60;;;0.20;99.90;;;;;;5049728;28;20386;-82
2022/04/13 04:15:11;;;;;;;5.60;1.87;;;0.20;99.90;;;;;;5070600;28;20393;-81
2022/04/13 04:17:39;;;;;;;4.07;1.52;;;0.30;99.90;;;;;;5052653;28;20390;-81
2022/04/13 04:20:07;;;;;;;3.97;1.50;;;0.30;99.90;;;;;;5067000;28;20804;-82
2022/04/13 04:22:35;;;;;;;5.00;1.65;;;0.30;99.90;;;;;;5051478;28;20981;-81
2022/04/13 04:25:07;;;;;;;4.38;1.75;;;0.30;99.90;;;;;;5036137;28;20395;-81
2022/04/13 04:27:35;;;;;;;5.45;1.60;;;0.30;99.90;;;;;;5050967;28;20383;-81
2022/04/13 04:30:03;;;;;;;4.30;1.70;;;0.30;99.90;;;;;;5050816;28;20473;-82
2022/04/13 04:32:31;;;;;;;4.15;1.50;;;0.30;99.90;;;;;;5033224;28;20380;-81
2022/04/13 04:34:59;;;;;;;5.53;1.58;;;0.30;99.90;;;;;;5049490;28;20814;-81
2022/04/13 04:37:27;;;;;;;5.07;1.70;;;0.30;99.90;;;;;;5050151;28;20470;-80
2022/04/13 04:39:54;;;;;;;2.90;1.42;;;0.30;99.90;;;;;;5049299;28;20387;-81
2022/04/13 04:42:22;;;;;;;3.63;1.50;;;0.40;99.90;;;;;;5048909;28;20449;-81
2022/04/13 04:44:56;;;;;;;4.15;1.60;;;0.40;99.90;;;;;;5051825;28;20415;-82
2022/04/13 04:47:24;;;;;;;5.80;2.00;;;0.40;99.90;;;;;;5032968;28;20376;-83
2022/04/13 04:49:52;;;;;;;9.02;3.03;;;0.40;99.90;;;;;;5054327;28;20401;-81
2022/04/13 04:52:20;;;;;;;3.03;1.60;;;0.40;99.90;;;;;;5036119;28;20394;-82
2022/04/13 04:54:48;;;;;;;2.83;1.57;;;0.50;99.90;;;;;;5059301;28;20881;-81
2022/04/13 04:57:15;;;;;;;7.22;2.85;;;0.60;99.90;;;;;;5036760;28;20387;-81
2022/04/13 04:59:43;;;;;;;4.50;1.50;;;0.60;99.90;;;;;;5039096;28;20388;-79
2022/04/13 05:02:11;;;;;;;5.03;1.73;;;0.60;99.90;;;;;;5064214;28;20933;-84
2022/04/13 05:04:38;;;;;;;5.67;2.03;;;0.70;99.90;;;;;;5052101;28;20417;-81
2022/04/13 05:07:07;;;;;;;3.85;1.42;;;0.70;99.90;;;;;;5053609;28;20392;-81
2022/04/13 05:09:34;;;;;;;5.22;1.92;;;0.90;99.90;;;;;;5053834;28;20392;-80
2022/04/13 05:12:02;;;;;;;4.90;1.70;;;1.00;99.90;;;;;;5052509;28;20411;-81
2022/04/13 05:14:30;;;;;;;7.25;2.60;;;1.10;99.90;;;;;;5053730;28;20765;-80
2022/04/13 05:16:58;;;;;;;3.42;1.38;;;1.10;99.90;;;;;;5050660;28;20399;-78
2022/04/13 05:19:34;;;;;;;4.38;1.33;;;1.30;99.90;;;;;;5046617;28;20387;-81
2022/04/13 05:22:03;;;;;;;2.87;1.03;;;1.50;99.90;;;;;;5053688;28;20391;-81
2022/04/13 05:24:31;;;;;;;4.90;1.70;;;1.70;99.90;;;;;;5053693;28;20765;-81
2022/04/13 05:26:58;;;;;;;3.42;1.20;;;1.70;99.90;;;;;;5053252;28;20471;-80
2022/04/13 05:29:26;;;;;;;4.18;1.30;;;1.80;99.90;;;;;;5032339;28;20410;-81
2022/04/13 05:31:54;;;;;;;5.78;1.70;;;1.90;99.90;;;;;;5032582;28;20412;-80
2022/04/13 05:34:21;;;;;;;4.13;1.55;;;1.90;99.90;;;;;;5037041;28;20404;-81
2022/04/13 05:36:49;;;;;;;2.93;1.30;;;2.20;99.90;;;;;;5033854;28;20386;-82
2022/04/13 05:39:16;;;;;;;4.50;1.65;;;2.20;99.90;;;;;;5048970;28;20454;-80
2022/04/13 05:41:44;;;;;;;4.32;1.50;;;2.30;99.90;;;;;;5033740;28;20416;-81
2022/04/13 05:44:12;;;;;;;5.80;1.98;;;2.20;99.90;;;;;;5033069;28;20400;-81
2022/04/13 05:46:39;;;;;;;4.68;1.70;;;2.30;99.90;;;;;;5033413;28;20421;-82
2022/04/13 05:49:07;;;;;;;3.15;1.50;;;2.30;99.90;;;;;;5033513;28;20459;-82
2022/04/13 05:51:34;;;;;;;4.38;1.42;;;2.40;99.90;;;;;;5033497;28;20411;-83
2022/04/13 05:54:02;;;;;;;3.60;1.50;;;2.50;99.90;;;;;;5033430;28;20480;-83
2022/04/13 05:56:30;;;;;;;5.47;1.75;;;2.60;99.90;;;;;;5033442;28;20390;-84
2022/04/13 05:58:58;;;;;;;3.90;1.40;;;2.80;99.90;;;;;;5033363;28;20913;-80
2022/04/13 06:01:25;;;;;;;4.63;1.25;;;2.90;99.90;;;;;;5033285;28;20425;-82
2022/04/13 06:03:53;;;;;;;5.50;1.20;;;2.90;99.90;;;;;;5034415;28;20393;-82
2022/04/13 06:06:25;;;;;;;4.25;1.20;;;2.90;99.90;;;;;;5053150;28;20478;-82
2022/04/13 06:08:53;;;;;;;2.65;1.30;;;3.00;99.90;;;;;;5053192;28;20975;-83
2022/04/13 06:11:24;;;;;;;3.85;1.67;;;3.10;99.90;;;;;;5052975;28;20422;-82
2022/04/13 06:13:52;;;;;;;3.77;1.20;;;3.10;99.90;;;;;;5052989;28;20893;-82
2022/04/13 06:16:19;;;;;;;3.63;1.15;;;3.20;99.90;;;;;;5052904;28;20445;-82
2022/04/13 06:18:47;;;;;;;4.80;1.27;;;3.30;99.90;;;;;;5052901;28;20938;-82
2022/04/13 06:21:15;;;;;;;4.72;1.63;;;3.40;99.90;;;;;;5051768;28;20399;-82
2022/04/13 06:23:42;;;;;;;3.35;1.10;;;3.40;99.90;;;;;;5051703;28;20446;-83
2022/04/13 06:26:10;;;;;;;3.13;1.17;;;3.50;99.90;;;;;;5034920;28;20487;-81
2022/04/13 06:28:38;;;;;;;5.32;1.20;;;3.40;99.90;;;;;;5052694;28;20388;-82
2022/04/13 06:31:05;;;;;;;2.70;1.40;;;3.60;99.90;;;;;;5034827;28;20402;-82
2022/04/13 06:33:36;;;;;;;4.20;1.20;;;3.60;99.90;;;;;;5036601;28;20438;-82
2022/04/13 06:36:05;;;;;;;2.20;1.20;;;3.70;99.90;;;;;;5061830;28;20444;-82
2022/04/13 06:38:33;;;;;;;3.77;1.20;;;3.70;99.90;;;;;;5054528;28;20387;-82
2022/04/13 06:41:01;;;;;;;2.63;1.33;;;3.80;99.90;;;;;;5071856;28;20752;-82
2022/04/13 06:43:30;;;;;;;2.97;1.13;;;4.00;99.90;;;;;;5072474;28;20421;-83
2022/04/13 06:45:58;;;;;;;4.63;1.30;;;3.90;99.90;;;;;;5072002;28;20393;-82
2022/04/13 06:48:26;;;;;;;4.00;1.10;;;4.00;99.90;;;;;;5072319;28;20387;-82
2022/04/13 06:50:53;;;;;;;3.70;1.20;;;4.10;99.90;;;;;;5054362;28;20933;-83
2022/04/13 06:53:21;;;;;;;3.05;1.08;;;4.10;99.90;;;;;;5071616;28;20435;-83
2022/04/13 06:55:49;;;;;;;4.90;1.27;;;4.20;99.90;;;;;;5071537;28;20743;-81
2022/04/13 06:58:18;;;;;;;4.38;1.30;;;4.20;99.90;;;;;;5071819;28;20397;-82
2022/04/13 07:00:47;;;;;;;2.45;1.00;;;4.10;99.90;;;;;;5071847;28;20412;-81
2022/04/13 07:03:14;;;;;;;3.85;1.10;;;4.20;99.90;;;;;;5053538;28;20398;-83
2022/04/13 07:05:43;;;;;;;2.83;1.03;;;4.30;99.90;;;;;;5053710;28;20402;-81
2022/04/13 07:08:11;;;;;;;2.08;0.90;;;4.50;99.90;;;;;;5071601;28;20484;-81
2022/04/13 07:10:39;;;;;;;2.67;1.10;;;4.60;99.90;;;;;;5037321;28;20934;-81
2022/04/13 07:13:11;;;;;;;5.53;1.35;;;4.60;99.90;;;;;;5071380;28;20382;-83
2022/04/13 07:15:39;;;;;;;2.92;1.00;;;4.80;99.90;;;;;;5071515;28;20775;-80
2022/04/13 07:18:07;;;;;;;2.92;1.00;;;4.80;99.90;;;;;;5071483;28;20382;-81
2022/04/13 07:20:35;;;;;;;2.45;1.13;;;4.80;99.90;;;;;;5071455;28;20871;-83
2022/04/13 07:23:02;;;;;;;2.50;0.80;;;4.80;99.90;;;;;;5053216;28;20382;-82
2022/04/13 07:25:31;;;;;;;1.98;0.88;;;4.90;99.90;;;;;;5071436;28;20396;-83
2022/04/13 07:27:59;;;;;;;2.63;1.13;;;5.20;99.90;;;;;;5053622;28;20385;-82
2022/04/13 07:30:27;;;;;;;2.00;0.98;;;5.00;99.90;;;;;;5071376;28;20385;-82
2022/04/13 07:32:55;;;;;;;2.22;0.90;;;5.20;99.90;;;;;;5053428;28;20405;-82
2022/04/13 07:35:23;;;;;;;2.45;0.80;;;5.20;99.90;;;;;;5053823;28;20394;-82
2022/04/13 07:37:51;;;;;;;2.28;0.90;;;5.20;99.90;;;;;;5070005;28;20387;-82
2022/04/13 07:40:19;;;;;;;1.60;0.70;;;5.10;99.90;;;;;;5071354;28;20390;-83
2022/04/13 07:42:47;;;;;;;3.33;0.90;;;5.20;99.90;;;;;;5071311;28;20385;-82
2022/04/13 07:45:15;;;;;;;2.00;0.80;;;5.20;99.90;;;;;;5053399;28;20867;-83
2022/04/13 07:47:42;;;;;;;1.48;0.80;;;5.30;99.90;;;;;;5071239;28;20394;-82
2022/04/13 07:50:13;;;;;;;1.77;0.60;;;5.30;99.90;;;;;;5071311;28;20421;-82
2022/04/13 07:52:43;;;;;;;1.42;0.65;;;5.30;99.90;;;;;;5070044;28;20883;-81
2022/04/13 07:55:11;;;;;;;2.92;0.70;;;5.40;99.90;;;;;;5071005;28;20506;-82
2022/04/13 07:57:40;;;;;;;2.00;0.53;;;5.50;99.90;;;;;;5070988;28;20431;-82
2022/04/13 08:00:10;;;;;;;1.85;0.65;;;5.40;99.90;;;;;;5053602;28;20385;-82
2022/04/13 08:02:41;;;;;;;2.70;0.85;;;5.60;99.90;;;;;;5071290;28;20382;-83
2022/04/13 08:05:12;;;;;;;1.73;0.70;;;5.80;99.90;;;;;;5053157;28;20398;-83
2022/04/13 08:07:41;;;;;;;2.20;0.88;;;5.70;99.90;;;;;;5071455;28;20394;-82
2022/04/13 08:10:09;;;;;;;2.05;0.70;;;5.80;99.90;;;;;;5071109;28;20394;-82
2022/04/13 08:12:39;;;;;;;1.33;0.70;;;6.00;99.90;;;;;;5057289;28;20960;-83
2022/04/13 08:15:08;;;;;;;4.50;0.77;;;6.00;99.90;;;;;;5051232;28;20464;-83
2022/04/13 08:17:38;;;;;;;1.70;0.60;;;6.00;99.90;;;;;;5049883;28;20402;-82
2022/04/13 08:20:09;;;;;;;1.85;0.70;;;6.10;99.90;;;;;;5051261;28;20387;-83
2022/04/13 08:22:37;;;;;;;1.80;0.70;;;6.20;99.90;;;;;;5049811;28;20892;-83
2022/04/13 08:25:05;;;;;;;3.00;0.60;;;6.10;99.90;;;;;;5048040;28;20388;-83
2022/04/13 08:27:33;;;;;;;1.33;0.50;;;6.30;99.90;;;;;;5055451;28;20386;-83
2022/04/13 08:30:01;;;;;;;1.85;0.50;;;6.20;99.90;;;;;;5074912;28;20471;-82
2022/04/13 08:32:28;;;;;;;2.78;0.70;;;6.30;99.90;;;;;;5073478;28;20401;-83
2022/04/13 08:34:56;;;;;;;1.58;0.70;;;6.10;99.90;;;;;;5074635;28;20477;-83
2022/04/13 08:37:25;;;;;;;1.38;0.60;;;6.10;99.90;;;;;;5037183;28;20900;-83
2022/04/13 08:39:53;;;;;;;2.67;0.70;;;6.20;99.90;;;;;;5054783;28;20441;-83
2022/04/13 08:42:50;;;;;;;1.17;0.50;;;6.20;99.90;;;;;;5053746;28;20423;-83
2022/04/13 08:45:25;;;;;;;1.00;0.50;;;6.40;99.90;;;;;;5053566;28;20483;-83
2022/04/13 08:47:59;;;;;;;1.45;0.60;;;6.30;99.90;;;;;;5054668;28;20387;-83
2022/04/13 08:50:29;;;;;;;1.75;0.60;;;6.40;99.90;;;;;;5054699;28;20959;-83
2022/04/13 08:53:04;;;;;;;2.25;0.70;;;6.60;99.90;;;;;;5054490;28;20412;-83
2022/04/13 08:55:32;;;;;;;1.00;0.50;;;6.60;99.90;;;;;;5059185;28;20864;-83
2022/04/13 08:58:28;;;;;;;1.98;0.70;;;6.80;99.90;;;;;;5074314;28;20404;-83
2022/04/13 09:01:00;;;;;;;2.97;0.63;;;6.90;99.90;;;;;;5039718;28;20907;-83
2022/04/13 09:03:40;;;;;;;2.20;0.60;;;6.70;99.90;;;;;;5056901;28;20390;-82
2022/04/13 09:06:08;;;;;;;1.70;0.53;;;6.70;99.90;;;;;;5073791;28;20432;-82
2022/04/13 09:08:48;;;;;;;2.47;0.70;;;6.90;99.90;;;;;;5039702;28;20752;-82
2022/04/13 09:11:17;;;;;;;2.70;0.80;;;6.90;99.90;;;;;;5073653;28;20898;-82
2022/04/13 09:13:45;;;;;;;1.73;0.60;;;6.80;99.90;;;;;;5039628;28;20397;-83
2022/04/13 09:16:13;;;;;;;2.97;0.80;;;7.00;99.90;;;;;;5073868;28;20386;-82
2022/04/13 09:18:43;;;;;;;2.35;0.80;;;7.00;99.90;;;;;;5055766;28;20473;-82
2022/04/13 09:21:17;;;;;;;2.35;0.80;;;7.00;99.90;;;;;;5055822;28;20939;-83
2022/04/13 09:23:45;;;;;;;3.85;0.90;;;7.00;99.90;;;;;;5047120;28;20450;-81
2022/04/13 09:26:14;;;;;;;2.78;0.80;;;7.30;99.90;;;;;;5062711;28;20491;-82
2022/04/13 09:28:43;;;;;;;2.75;0.50;;;7.20;99.90;;;;;;5046768;28;20402;-83
2022/04/13 09:31:10;;;;;;;3.07;0.60;;;7.30;99.90;;;;;;5055342;28;20471;-81
2022/04/13 09:33:38;;;;;;;1.45;0.50;;;7.40;99.90;;;;;;5055482;28;20398;-83
2022/04/13 09:36:06;;;;;;;1.55;0.60;;;7.40;99.90;;;;;;5072273;28;20431;-82
2022/04/13 09:38:35;;;;;;;3.42;0.60;;;7.20;99.90;;;;;;5072334;28;20389;-80
2022/04/13 09:41:07;;;;;;;3.15;0.73;;;7.40;99.90;;;;;;5073112;28;20382;-83
2022/04/13 09:43:36;;;;;;;2.40;0.77;;;7.30;99.90;;;;;;5055851;28;20752;-81
2022/04/13 09:46:04;;;;;;;2.30;0.70;;;7.40;99.90;;;;;;5055610;28;20468;-82
2022/04/13 09:48:33;;;;;;;3.13;0.68;;;7.50;99.90;;;;;;5073005;28;20787;-81
2022/04/13 09:51:02;;;;;;;2.55;0.60;;;8.00;99.90;;;;;;5038006;28;20760;-82
2022/04/13 09:53:30;;;;;;;2.88;0.80;;;7.90;99.90;;;;;;5053458;28;20401;-82
2022/04/13 09:55:59;;;;;;;1.52;0.60;;;7.70;99.90;;;;;;5037426;28;20841;-81
2022/04/13 09:58:32;;;;;;;1.95;0.60;;;7.70;99.90;;;;;;5065751;28;20407;-80
2022/04/13 10:01:06;;;;;;;2.00;0.80;;;7.90;99.90;;;;;;5042207;28;20388;-81
2022/04/13 10:03:33;;;;;;;1.75;0.60;;;7.80;99.90;;;;;;5053272;28;20394;-82
2022/04/13 10:06:01;;;;;;;2.10;0.63;;;7.90;99.90;;;;;;5052916;28;20842;-81
2022/04/13 10:08:30;;;;;;;2.50;0.65;;;7.80;99.90;;;;;;5053181;28;20388;-81
2022/04/13 10:10:59;;;;;;;1.85;0.65;;;7.80;99.90;;;;;;5053017;28;20426;-81
2022/04/13 10:13:37;;;;;;;2.03;0.80;;;7.80;99.90;;;;;;5051973;28;20740;-82
2022/04/13 10:16:08;;;;;;;1.70;0.60;;;8.00;99.90;;;;;;5052909;28;20384;-82
2022/04/13 10:18:52;;;;;;;2.03;0.80;;;7.90;99.90;;;;;;5053141;28;20434;-82
2022/04/13 10:21:41;;;;;;;2.33;0.70;;;8.00;99.90;;;;;;5051670;28;20814;-82
2022/04/13 10:24:26;;;;;;;1.25;0.50;;;8.00;99.90;;;;;;5061840;28;20470;-82
2022/04/13 10:27:07;;;;;;;1.80;0.77;;;8.00;99.90;;;;;;5063573;28;20425;-82
2022/04/13 10:29:36;;;;;;;2.60;0.70;;;8.00;99.90;;;;;;5064416;28;20417;-82
2022/04/13 10:32:09;;;;;;;1.90;0.60;;;8.20;99.90;;;;;;5045414;28;20404;-82
2022/04/13 10:34:42;;;;;;;2.17;0.75;;;8.20;99.90;;;;;;5035031;28;20394;-82
2022/04/13 10:37:12;;;;;;;2.80;0.60;;;8.30;99.90;;;;;;5052589;28;20479;-82
2022/04/13 10:39:41;;;;;;;2.60;0.80;;;8.50;99.90;;;;;;5052537;28;20380;-83
2022/04/13 10:42:10;;;;;;;1.30;0.50;;;8.80;99.90;;;;;;5052496;28;20882;-82
2022/04/13 10:45:03;;;;;;;2.97;0.80;;;8.90;99.90;;;;;;5051450;28;20474;-83
2022/04/13 10:47:40;;;;;;;1.50;0.60;;;8.90;99.90;;;;;;5056986;28;20876;-82
2022/04/13 10:50:08;;;;;;;3.72;1.00;;;9.00;99.90;;;;;;5071616;28;20386;-82
2022/04/13 10:53:13;;;;;;;3.28;0.80;;;9.00;99.90;;;;;;5070705;28;20481;-81
2022/04/13 10:55:42;;;;;;;2.33;0.90;;;9.00;99.90;;;;;;5071712;28;20481;-84
2022/04/13 10:58:37;;;;;;;2.25;0.93;;;9.00;99.90;;;;;;5054064;28;20386;-84
2022/04/13 11:01:11;;;;;;;2.20;0.73;;;9.00;99.90;;;;;;5053938;28;20386;-84
2022/04/13 11:03:40;;;;;;;2.08;0.73;;;9.20;99.90;;;;;;5073231;28;20384;-82
2022/04/13 11:06:09;;;;;;;2.08;0.80;;;9.20;99.40;;;;;;5078553;28;20413;-83
2022/04/13 11:09:16;;;;;;;3.00;1.33;;;9.10;99.90;;;;;;5043902;28;20436;-81
2022/04/13 11:11:45;;;;;;;1.15;0.60;;;9.10;99.90;;;;;;5034072;28;20414;-82
2022/04/13 11:14:23;;;;;;;2.67;0.65;;;9.10;99.90;;;;;;5048139;28;20908;-83
2022/04/13 11:17:06;;;;;;;2.63;0.70;;;9.10;99.90;;;;;;5057507;28;20398;-83
2022/04/13 11:19:34;;;;;;;3.30;0.60;;;9.20;98.70;;;;;;5055378;28;20382;-83
2022/04/13 11:22:01;;;;;;;1.50;0.50;;;9.30;99.40;;;;;;5050159;28;20398;-82
2022/04/13 11:24:41;;;;;;;1.83;0.50;;;9.50;99.60;;;;;;5051599;28;20402;-82
2022/04/13 11:27:10;;;;;;;2.13;0.60;;;9.70;99.40;;;;;;5071377;28;20740;-82
2022/04/13 11:29:57;;;;;;;1.98;0.60;;;9.80;99.70;;;;;;5071535;28;20839;-82
2022/04/13 11:32:32;;;;;;;2.13;0.73;;;9.70;99.10;;;;;;5049009;28;20408;-83
2022/04/13 11:35:02;;;;;;;2.40;0.70;;;9.60;98.90;;;;;;5054450;28;20432;-83
2022/04/13 11:37:36;;;;;;;2.47;0.70;;;9.60;99.50;;;;;;5050593;28;20840;-83
2022/04/13 11:40:06;;;;;;;1.90;0.80;;;9.60;99.90;;;;;;5050392;28;20403;-82
2022/04/13 11:42:37;;;;;;;2.90;1.00;;;9.60;99.30;;;;;;5033859;28;20746;-83
2022/04/13 11:45:06;;;;;;;3.17;1.10;;;9.70;97.20;;;;;;5050167;28;20821;-83
2022/04/13 11:47:43;;;;;;;2.43;1.07;;;9.70;96.80;;;;;;5050189;28;20762;-81
2022/04/13 11:50:14;;;;;;;3.08;1.00;;;9.80;98.00;;;;;;5051483;28;20441;-83
2022/04/13 11:52:43;;;;;;;3.25;1.00;;;9.70;99.90;;;;;;5061412;28;20491;-82
2022/04/13 11:55:25;;;;;;;2.33;1.00;;;9.70;99.00;;;;;;5045741;28;20449;-83
2022/04/13 11:58:06;;;;;;;2.50;1.00;;;9.90;99.90;;;;;;5060194;28;20589;-82
2022/04/13 12:00:44;;;;;;;2.78;0.93;;;9.60;99.90;;;;;;5044804;28;20392;-83
2022/04/13 12:03:18;;;;;;;3.08;0.80;;;9.80;99.90;;;;;;5057798;28;20885;-84
2022/04/13 12:05:52;;;;;;;2.20;0.85;;;9.80;98.20;;;;;;5066841;28;20406;-82
2022/04/13 12:08:25;;;;;;;2.38;0.90;;;9.90;97.80;;;;;;5055661;28;20384;-82
2022/04/13 12:11:03;;;;;;;2.83;1.05;;;10.30;97.70;;;;;;5072185;28;20753;-83
2022/04/13 12:13:43;;;;;;;2.30;0.80;;;10.30;96.80;;;;;;5055072;28;20399;-82
2022/04/13 12:16:17;;;;;;;3.03;1.00;;;10.30;97.50;;;;;;5046009;28;20494;-83
2022/04/13 12:18:45;;;;;;;1.80;0.90;;;10.20;99.10;;;;;;5053678;28;20441;-82
2022/04/13 12:21:21;;;;;;;2.15;0.90;;;10.20;97.40;;;;;;5063335;28;20385;-82
2022/04/13 12:23:49;;;;;;;2.65;1.00;;;10.30;96.60;;;;;;5055670;28;20389;-83
2022/04/13 12:26:17;;;;;;;3.00;0.98;;;10.30;96.10;;;;;;5055975;28;20387;-83
2022/04/13 12:28:45;;;;;;;1.60;0.80;;;10.20;97.40;;;;;;5071644;28;20494;-83
2022/04/13 12:31:13;;;;;;;2.60;0.90;;;10.20;98.10;;;;;;5052862;28;20475;-82
2022/04/13 12:33:41;;;;;;;1.90;1.05;;;10.10;98.70;;;;;;5056827;28;20402;-82
2022/04/13 12:36:11;;;;;;;2.08;0.80;;;10.10;96.10;;;;;;5057227;28;20857;-83
2022/04/13 12:38:43;;;;;;;2.53;0.90;;;10.00;98.40;;;;;;5053609;28;20777;-83
2022/04/13 12:41:16;;;;;;;1.70;1.00;;;10.30;98.30;;;;;;5037171;28;20441;-83
2022/04/13 12:44:01;;;;;;;2.70;1.10;;;10.50;98.80;;;;;;5053297;28;20752;-83
2022/04/13 12:46:31;;;;;;;3.10;1.00;;;10.70;96.20;;;;;;5036725;28;20391;-82
2022/04/13 12:49:01;;;;;;;2.85;1.00;;;10.60;98.10;;;;;;5051223;28;20426;-84
2022/04/13 12:51:34;;;;;;;2.20;0.90;;;10.50;97.10;;;;;;5056825;28;20390;-83
2022/04/13 12:54:06;;;;;;;1.75;1.00;;;10.70;96.00;;;;;;5074314;28;20406;-83
2022/04/13 12:56:36;;;;;;;2.03;1.02;;;10.90;97.50;;;;;;5066161;28;20410;-83
2022/04/13 12:59:05;;;;;;;1.98;0.93;;;10.90;94.30;;;;;;5054310;28;20445;-82
2022/04/13 13:01:37;;;;;;;2.30;1.08;;;10.80;94.60;;;;;;5054335;28;20457;-81
2022/04/13 13:04:16;;;;;;;1.63;0.90;;;11.00;94.20;;;;;;5046511;28;20887;-83
2022/04/13 13:07:00;;;;;;;2.30;1.00;;;11.10;94.70;;;;;;5053091;28;20539;-82
2022/04/13 13:09:33;;;;;;;1.98;0.80;;;11.20;94.40;;;;;;5054355;28;20388;-83